sensor_id;sensor_type;location;lat;lon;timestamp;temperature;humidity
24041;DHT22;12246;47.612;18.906;2022-11-20T00:01:36;1.00;99.90
24041;DHT22;12246;47.612;18.906;2022-11-20T00:04:28;0.90;99.90
24041;DHT22;12246;47.612;18.906;2022-11-20T00:07:20;0.90;99.90
24041;DHT22;12246;47.612;18.906;2022-11-20T00:10:13;0.90;99.90
24041;DHT22;12246;47.612;18.906;2022-11-20T00:13:05;0.90;99.90
24041;DHT22;12246;47.612;18.906;2022-11-20T00:15:58;0.90;99.90
24041;DHT22;12246;47.612;18.906;2022-11-20T00:18:51;1.00;99.90
24041;DHT22;12246;47.612;18.906;2022-11-20T00:21:43;1.00;99.90
24041;DHT22;12246;47.612;18.906;2022-11-20T00:24:36;1.00;99.90
24041;DHT22;12246;47.612;18.906;2022-11-20T00:27:33;1.00;99.90
24041;DHT22;12246;47.612;18.906;2022-11-20T00:30:26;1.10;99.90
24041;DHT22;12246;47.612;18.906;2022-11-20T00:33:18;1.20;99.90
24041;DHT22;12246;47.612;18.906;2022-11-20T00:36:15;1.20;99.90
24041;DHT22;12246;47.612;18.906;2022-11-20T00:39:07;1.20;99.90
24041;DHT22;12246;47.612;18.906;2022-11-20T00:41:59;1.20;99.90
24041;DHT22;12246;47.612;18.906;2022-11-20T00:44:51;1.20;99.90
24041;DHT22;12246;47.612;18.906;2022-11-20T00:47:44;1.10;99.90
24041;DHT22;12246;47.612;18.906;2022-11-20T00:50:36;1.10;99.90
24041;DHT22;12246;47.612;18.906;2022-11-20T00:53:28;1.00;99.90
24041;DHT22;12246;47.612;18.906;2022-11-20T00:56:20;1.10;99.90
24041;DHT22;12246;47.612;18.906;2022-11-20T00:59:12;1.10;99.90
24041;DHT22;12246;47.612;18.906;2022-11-20T01:02:04;1.10;99.90
24041;DHT22;12246;47.612;18.906;2022-11-20T01:04:56;1.10;99.90
24041;DHT22;12246;47.612;18.906;2022-11-20T01:07:49;1.10;99.90
24041;DHT22;12246;47.612;18.906;2022-11-20T01:10:41;1.10;99.90
24041;DHT22;12246;47.612;18.906;2022-11-20T01:13:33;1.00;99.90
24041;DHT22;12246;47.612;18.906;2022-11-20T01:16:32;1.00;99.90
24041;DHT22;12246;47.612;18.906;2022-11-20T01:19:24;1.00;99.90
24041;DHT22;12246;47.612;18.906;2022-11-20T01:22:17;1.00;99.90
24041;DHT22;12246;47.612;18.906;2022-11-20T01:25:09;1.00;99.90
24041;DHT22;12246;47.612;18.906;2022-11-20T01:28:01;1.10;99.90
24041;DHT22;12246;47.612;18.906;2022-11-20T01:30:53;1.20;99.90
24041;DHT22;12246;47.612;18.906;2022-11-20T01:33:47;1.40;99.90
24041;DHT22;12246;47.612;18.906;2022-11-20T01:36:40;1.60;99.90
24041;DHT22;12246;47.612;18.906;2022-11-20T01:39:33;1.70;99.90
24041;DHT22;12246;47.612;18.906;2022-11-20T01:42:25;1.90;99.90
24041;DHT22;12246;47.612;18.906;2022-11-20T01:51:55;2.20;99.90
24041;DHT22;12246;47.612;18.906;2022-11-20T01:54:56;2.30;99.90
24041;DHT22;12246;47.612;18.906;2022-11-20T01:57:51;2.40;99.90
24041;DHT22;12246;47.612;18.906;2022-11-20T02:00:43;2.30;99.90
24041;DHT22;12246;47.612;18.906;2022-11-20T02:03:35;2.30;99.90
24041;DHT22;12246;47.612;18.906;2022-11-20T02:09:28;2.50;99.90
24041;DHT22;12246;47.612;18.906;2022-11-20T02:12:21;2.50;99.90
24041;DHT22;12246;47.612;18.906;2022-11-20T02:15:33;2.50;99.90
24041;DHT22;12246;47.612;18.906;2022-11-20T02:18:26;2.40;99.90
24041;DHT22;12246;47.612;18.906;2022-11-20T02:24:20;2.30;99.90
24041;DHT22;12246;47.612;18.906;2022-11-20T02:27:14;2.20;99.90
24041;DHT22;12246;47.612;18.906;2022-11-20T02:30:08;2.00;99.90
24041;DHT22;12246;47.612;18.906;2022-11-20T02:33:02;1.90;99.90
24041;DHT22;12246;47.612;18.906;2022-11-20T02:35:54;1.80;99.90
24041;DHT22;12246;47.612;18.906;2022-11-20T02:38:47;1.60;99.90
24041;DHT22;12246;47.612;18.906;2022-11-20T02:41:40;1.60;99.90
24041;DHT22;12246;47.612;18.906;2022-11-20T02:44:32;1.60;99.90
24041;DHT22;12246;47.612;18.906;2022-11-20T02:47:24;1.60;99.90
24041;DHT22;12246;47.612;18.906;2022-11-20T02:50:17;1.50;99.90
24041;DHT22;12246;47.612;18.906;2022-11-20T02:53:09;1.60;99.90
24041;DHT22;12246;47.612;18.906;2022-11-20T02:56:01;1.70;99.90
24041;DHT22;12246;47.612;18.906;2022-11-20T02:58:53;1.70;99.90
24041;DHT22;12246;47.612;18.906;2022-11-20T03:01:45;1.70;99.90
24041;DHT22;12246;47.612;18.906;2022-11-20T03:04:38;1.80;99.90
24041;DHT22;12246;47.612;18.906;2022-11-20T03:07:30;1.70;99.90
24041;DHT22;12246;47.612;18.906;2022-11-20T03:10:22;1.60;99.90
24041;DHT22;12246;47.612;18.906;2022-11-20T03:13:14;1.50;99.90
24041;DHT22;12246;47.612;18.906;2022-11-20T03:16:15;1.50;99.90
24041;DHT22;12246;47.612;18.906;2022-11-20T03:19:07;1.40;99.90
24041;DHT22;12246;47.612;18.906;2022-11-20T03:21:59;1.40;99.90
24041;DHT22;12246;47.612;18.906;2022-11-20T03:24:52;1.40;99.90
24041;DHT22;12246;47.612;18.906;2022-11-20T03:27:44;1.40;99.90
24041;DHT22;12246;47.612;18.906;2022-11-20T03:30:36;1.40;99.90
24041;DHT22;12246;47.612;18.906;2022-11-20T03:33:28;1.40;99.90
24041;DHT22;12246;47.612;18.906;2022-11-20T03:36:21;1.40;99.90
24041;DHT22;12246;47.612;18.906;2022-11-20T03:39:13;1.40;99.90
24041;DHT22;12246;47.612;18.906;2022-11-20T03:42:05;1.30;99.90
24041;DHT22;12246;47.612;18.906;2022-11-20T03:45:18;1.30;99.90
24041;DHT22;12246;47.612;18.906;2022-11-20T03:48:10;1.30;99.90
24041;DHT22;12246;47.612;18.906;2022-11-20T03:51:20;1.40;99.90
24041;DHT22;12246;47.612;18.906;2022-11-20T03:54:12;1.30;99.90
24041;DHT22;12246;47.612;18.906;2022-11-20T03:57:04;1.30;99.90
24041;DHT22;12246;47.612;18.906;2022-11-20T03:59:57;1.20;99.90
24041;DHT22;12246;47.612;18.906;2022-11-20T04:02:49;1.20;99.90
24041;DHT22;12246;47.612;18.906;2022-11-20T04:05:41;1.30;99.90
24041;DHT22;12246;47.612;18.906;2022-11-20T04:08:33;1.20;99.90
24041;DHT22;12246;47.612;18.906;2022-11-20T04:11:27;1.30;99.90
24041;DHT22;12246;47.612;18.906;2022-11-20T04:14:20;1.30;99.90
24041;DHT22;12246;47.612;18.906;2022-11-20T04:17:12;1.30;99.90
24041;DHT22;12246;47.612;18.906;2022-11-20T04:20:05;1.30;99.90
24041;DHT22;12246;47.612;18.906;2022-11-20T04:22:57;1.40;99.90
24041;DHT22;12246;47.612;18.906;2022-11-20T04:25:49;1.40;99.90
24041;DHT22;12246;47.612;18.906;2022-11-20T04:28:41;1.40;99.90
24041;DHT22;12246;47.612;18.906;2022-11-20T04:31:34;1.40;99.90
24041;DHT22;12246;47.612;18.906;2022-11-20T04:34:26;1.40;99.90
24041;DHT22;12246;47.612;18.906;2022-11-20T04:37:18;1.50;99.90
24041;DHT22;12246;47.612;18.906;2022-11-20T04:40:11;1.50;99.90
24041;DHT22;12246;47.612;18.906;2022-11-20T04:43:03;1.50;99.90
24041;DHT22;12246;47.612;18.906;2022-11-20T04:45:56;1.40;99.90
24041;DHT22;12246;47.612;18.906;2022-11-20T04:48:49;1.50;99.90
24041;DHT22;12246;47.612;18.906;2022-11-20T04:51:41;1.50;99.90
24041;DHT22;12246;47.612;18.906;2022-11-20T04:54:33;1.40;99.90
24041;DHT22;12246;47.612;18.906;2022-11-20T04:57:25;1.30;99.90
24041;DHT22;12246;47.612;18.906;2022-11-20T05:00:17;1.30;99.90
24041;DHT22;12246;47.612;18.906;2022-11-20T05:03:10;1.30;99.90
24041;DHT22;12246;47.612;18.906;2022-11-20T05:06:03;1.40;99.90
24041;DHT22;12246;47.612;18.906;2022-11-20T05:08:56;1.40;99.90
24041;DHT22;12246;47.612;18.906;2022-11-20T05:11:48;1.40;99.90
24041;DHT22;12246;47.612;18.906;2022-11-20T05:14:42;1.50;99.90
24041;DHT22;12246;47.612;18.906;2022-11-20T05:17:34;1.50;99.90
24041;DHT22;12246;47.612;18.906;2022-11-20T05:20:27;1.50;99.90
24041;DHT22;12246;47.612;18.906;2022-11-20T05:23:19;1.50;99.90
24041;DHT22;12246;47.612;18.906;2022-11-20T05:26:19;1.40;99.90
24041;DHT22;12246;47.612;18.906;2022-11-20T05:29:13;1.40;99.90
24041;DHT22;12246;47.612;18.906;2022-11-20T05:32:05;1.50;99.90
24041;DHT22;12246;47.612;18.906;2022-11-20T05:34:59;1.50;99.90
24041;DHT22;12246;47.612;18.906;2022-11-20T05:37:51;1.60;99.90
24041;DHT22;12246;47.612;18.906;2022-11-20T05:40:43;1.60;99.90
24041;DHT22;12246;47.612;18.906;2022-11-20T05:43:37;1.50;99.90
24041;DHT22;12246;47.612;18.906;2022-11-20T05:46:29;1.60;99.90
24041;DHT22;12246;47.612;18.906;2022-11-20T05:49:21;1.50;99.90
24041;DHT22;12246;47.612;18.906;2022-11-20T05:52:14;1.60;99.90
24041;DHT22;12246;47.612;18.906;2022-11-20T05:55:06;1.60;99.90
24041;DHT22;12246;47.612;18.906;2022-11-20T05:57:58;1.60;99.90
24041;DHT22;12246;47.612;18.906;2022-11-20T06:00:51;1.60;99.90
24041;DHT22;12246;47.612;18.906;2022-11-20T06:03:44;1.60;99.90
24041;DHT22;12246;47.612;18.906;2022-11-20T06:06:39;1.70;99.90
24041;DHT22;12246;47.612;18.906;2022-11-20T06:09:31;1.90;99.90
24041;DHT22;12246;47.612;18.906;2022-11-20T06:12:23;2.10;99.90
24041;DHT22;12246;47.612;18.906;2022-11-20T06:15:15;2.20;99.90
24041;DHT22;12246;47.612;18.906;2022-11-20T06:18:07;2.30;99.90
24041;DHT22;12246;47.612;18.906;2022-11-20T06:21:04;2.40;99.90
24041;DHT22;12246;47.612;18.906;2022-11-20T06:23:57;2.40;99.90
24041;DHT22;12246;47.612;18.906;2022-11-20T06:26:49;2.40;99.90
24041;DHT22;12246;47.612;18.906;2022-11-20T06:29:41;2.50;99.90
24041;DHT22;12246;47.612;18.906;2022-11-20T06:32:33;2.50;99.90
24041;DHT22;12246;47.612;18.906;2022-11-20T06:35:25;2.60;99.90
24041;DHT22;12246;47.612;18.906;2022-11-20T06:38:18;2.80;99.90
24041;DHT22;12246;47.612;18.906;2022-11-20T06:41:17;2.80;99.90
24041;DHT22;12246;47.612;18.906;2022-11-20T06:44:10;2.90;99.90
24041;DHT22;12246;47.612;18.906;2022-11-20T06:47:02;3.00;99.90
24041;DHT22;12246;47.612;18.906;2022-11-20T06:49:55;3.00;99.90
24041;DHT22;12246;47.612;18.906;2022-11-20T06:52:47;3.10;99.90
24041;DHT22;12246;47.612;18.906;2022-11-20T06:55:45;3.10;99.90
24041;DHT22;12246;47.612;18.906;2022-11-20T06:58:38;3.10;99.90
24041;DHT22;12246;47.612;18.906;2022-11-20T07:01:30;3.20;99.90
24041;DHT22;12246;47.612;18.906;2022-11-20T07:04:22;3.10;99.90
24041;DHT22;12246;47.612;18.906;2022-11-20T07:07:14;3.00;99.90
24041;DHT22;12246;47.612;18.906;2022-11-20T07:10:07;2.90;99.90
24041;DHT22;12246;47.612;18.906;2022-11-20T07:12:59;2.80;99.90
24041;DHT22;12246;47.612;18.906;2022-11-20T07:15:52;2.80;99.90
24041;DHT22;12246;47.612;18.906;2022-11-20T07:18:44;2.80;99.90
24041;DHT22;12246;47.612;18.906;2022-11-20T07:21:41;2.90;99.90
24041;DHT22;12246;47.612;18.906;2022-11-20T07:24:33;3.00;99.90
24041;DHT22;12246;47.612;18.906;2022-11-20T07:27:26;3.00;99.90
24041;DHT22;12246;47.612;18.906;2022-11-20T07:30:19;3.00;99.90
24041;DHT22;12246;47.612;18.906;2022-11-20T07:33:11;3.10;99.90
24041;DHT22;12246;47.612;18.906;2022-11-20T07:36:04;3.00;99.90
24041;DHT22;12246;47.612;18.906;2022-11-20T07:38:56;2.70;99.90
24041;DHT22;12246;47.612;18.906;2022-11-20T07:41:48;2.50;99.90
24041;DHT22;12246;47.612;18.906;2022-11-20T07:44:40;2.50;99.90
24041;DHT22;12246;47.612;18.906;2022-11-20T07:47:36;2.40;99.90
24041;DHT22;12246;47.612;18.906;2022-11-20T07:50:28;2.30;99.90
24041;DHT22;12246;47.612;18.906;2022-11-20T07:53:20;2.30;99.90
24041;DHT22;12246;47.612;18.906;2022-11-20T07:56:13;2.40;99.90
24041;DHT22;12246;47.612;18.906;2022-11-20T07:59:05;2.40;99.90
24041;DHT22;12246;47.612;18.906;2022-11-20T08:01:58;2.50;99.90
24041;DHT22;12246;47.612;18.906;2022-11-20T08:04:50;2.60;99.90
24041;DHT22;12246;47.612;18.906;2022-11-20T08:07:43;2.70;99.90
24041;DHT22;12246;47.612;18.906;2022-11-20T08:10:36;2.70;99.90
24041;DHT22;12246;47.612;18.906;2022-11-20T08:13:28;2.80;99.90
24041;DHT22;12246;47.612;18.906;2022-11-20T08:16:40;2.80;99.90
24041;DHT22;12246;47.612;18.906;2022-11-20T08:19:33;2.90;99.90
24041;DHT22;12246;47.612;18.906;2022-11-20T08:22:25;2.90;99.90
24041;DHT22;12246;47.612;18.906;2022-11-20T08:25:17;3.00;99.90
24041;DHT22;12246;47.612;18.906;2022-11-20T08:28:09;3.00;99.90
24041;DHT22;12246;47.612;18.906;2022-11-20T08:31:11;3.20;99.90
24041;DHT22;12246;47.612;18.906;2022-11-20T08:34:04;3.10;99.90
24041;DHT22;12246;47.612;18.906;2022-11-20T08:37:02;3.10;99.90
24041;DHT22;12246;47.612;18.906;2022-11-20T08:39:54;3.20;99.90
24041;DHT22;12246;47.612;18.906;2022-11-20T08:42:49;3.30;99.90
24041;DHT22;12246;47.612;18.906;2022-11-20T08:45:42;3.40;99.90
24041;DHT22;12246;47.612;18.906;2022-11-20T08:48:34;3.50;99.90
24041;DHT22;12246;47.612;18.906;2022-11-20T08:51:26;3.60;99.90
24041;DHT22;12246;47.612;18.906;2022-11-20T08:54:18;3.70;99.90
24041;DHT22;12246;47.612;18.906;2022-11-20T08:57:13;3.80;99.90
24041;DHT22;12246;47.612;18.906;2022-11-20T09:00:07;3.90;99.90
24041;DHT22;12246;47.612;18.906;2022-11-20T09:03:00;3.90;99.90
24041;DHT22;12246;47.612;18.906;2022-11-20T09:05:58;3.90;99.90
24041;DHT22;12246;47.612;18.906;2022-11-20T09:08:54;4.00;99.90
24041;DHT22;12246;47.612;18.906;2022-11-20T09:11:46;4.00;99.90
24041;DHT22;12246;47.612;18.906;2022-11-20T09:14:38;4.00;99.90
24041;DHT22;12246;47.612;18.906;2022-11-20T09:17:31;4.00;99.90
24041;DHT22;12246;47.612;18.906;2022-11-20T09:20:23;3.90;99.90
24041;DHT22;12246;47.612;18.906;2022-11-20T09:23:16;3.90;99.90
24041;DHT22;12246;47.612;18.906;2022-11-20T09:26:13;3.90;99.90
24041;DHT22;12246;47.612;18.906;2022-11-20T09:29:05;3.90;99.90
24041;DHT22;12246;47.612;18.906;2022-11-20T09:31:57;3.90;99.90
24041;DHT22;12246;47.612;18.906;2022-11-20T09:34:49;3.90;99.90
24041;DHT22;12246;47.612;18.906;2022-11-20T09:37:42;4.00;99.90
24041;DHT22;12246;47.612;18.906;2022-11-20T09:40:35;4.00;99.90
24041;DHT22;12246;47.612;18.906;2022-11-20T09:47:20;4.20;99.90
24041;DHT22;12246;47.612;18.906;2022-11-20T09:56:41;4.40;99.90
24041;DHT22;12246;47.612;18.906;2022-11-20T09:59:46;4.30;99.90
24041;DHT22;12246;47.612;18.906;2022-11-20T10:05:50;4.50;99.90
24041;DHT22;12246;47.612;18.906;2022-11-20T10:09:34;4.60;99.90
24041;DHT22;12246;47.612;18.906;2022-11-20T10:12:21;4.70;99.90
24041;DHT22;12246;47.612;18.906;2022-11-20T10:16:08;4.70;99.90
24041;DHT22;12246;47.612;18.906;2022-11-20T10:31:12;5.30;99.90
24041;DHT22;12246;47.612;18.906;2022-11-20T10:37:35;5.50;99.90
24041;DHT22;12246;47.612;18.906;2022-11-20T10:40:48;5.60;99.90
24041;DHT22;12246;47.612;18.906;2022-11-20T10:43:42;5.70;99.90
24041;DHT22;12246;47.612;18.906;2022-11-20T10:46:43;5.70;99.90
24041;DHT22;12246;47.612;18.906;2022-11-20T10:49:36;5.70;99.90
24041;DHT22;12246;47.612;18.906;2022-11-20T10:59:02;5.60;99.90
24041;DHT22;12246;47.612;18.906;2022-11-20T11:01:55;5.60;99.90
24041;DHT22;12246;47.612;18.906;2022-11-20T11:04:50;5.50;99.90
24041;DHT22;12246;47.612;18.906;2022-11-20T11:07:42;5.50;99.90
24041;DHT22;12246;47.612;18.906;2022-11-20T11:10:54;5.40;99.90
24041;DHT22;12246;47.612;18.906;2022-11-20T11:13:48;5.40;99.90
24041;DHT22;12246;47.612;18.906;2022-11-20T11:16:54;5.30;99.90
24041;DHT22;12246;47.612;18.906;2022-11-20T11:19:58;5.40;99.90
24041;DHT22;12246;47.612;18.906;2022-11-20T11:25:42;5.40;99.90
24041;DHT22;12246;47.612;18.906;2022-11-20T11:28:59;5.50;99.90
24041;DHT22;12246;47.612;18.906;2022-11-20T11:31:51;5.40;99.90
24041;DHT22;12246;47.612;18.906;2022-11-20T11:34:43;5.50;99.90
24041;DHT22;12246;47.612;18.906;2022-11-20T11:37:37;5.50;99.90
24041;DHT22;12246;47.612;18.906;2022-11-20T11:40:32;5.60;99.90
24041;DHT22;12246;47.612;18.906;2022-11-20T11:43:28;5.60;99.90
24041;DHT22;12246;47.612;18.906;2022-11-20T11:46:44;5.60;99.90
24041;DHT22;12246;47.612;18.906;2022-11-20T11:49:41;5.70;99.90
24041;DHT22;12246;47.612;18.906;2022-11-20T11:52:43;5.70;99.90
24041;DHT22;12246;47.612;18.906;2022-11-20T11:55:46;5.70;99.90
24041;DHT22;12246;47.612;18.906;2022-11-20T11:58:51;5.70;99.90
24041;DHT22;12246;47.612;18.906;2022-11-20T12:01:52;5.70;99.90
24041;DHT22;12246;47.612;18.906;2022-11-20T12:04:53;5.70;99.90
24041;DHT22;12246;47.612;18.906;2022-11-20T12:07:55;5.70;99.90
24041;DHT22;12246;47.612;18.906;2022-11-20T12:13:54;5.50;99.90
24041;DHT22;12246;47.612;18.906;2022-11-20T12:16:47;5.50;99.90
24041;DHT22;12246;47.612;18.906;2022-11-20T12:19:40;5.40;99.90
24041;DHT22;12246;47.612;18.906;2022-11-20T12:25:54;5.10;99.90
24041;DHT22;12246;47.612;18.906;2022-11-20T12:29:03;5.20;99.90
24041;DHT22;12246;47.612;18.906;2022-11-20T12:51:24;5.40;99.90
24041;DHT22;12246;47.612;18.906;2022-11-20T13:00:20;5.40;99.90
24041;DHT22;12246;47.612;18.906;2022-11-20T13:06:18;5.40;99.90
24041;DHT22;12246;47.612;18.906;2022-11-20T13:09:13;5.40;99.90
24041;DHT22;12246;47.612;18.906;2022-11-20T13:12:19;5.50;99.90
24041;DHT22;12246;47.612;18.906;2022-11-20T13:15:32;5.50;99.90
24041;DHT22;12246;47.612;18.906;2022-11-20T13:18:26;5.50;99.90
24041;DHT22;12246;47.612;18.906;2022-11-20T13:21:21;5.60;99.90
24041;DHT22;12246;47.612;18.906;2022-11-20T13:30:16;5.50;99.90
24041;DHT22;12246;47.612;18.906;2022-11-20T13:36:25;5.50;99.90
24041;DHT22;12246;47.612;18.906;2022-11-20T13:39:30;5.40;99.90
24041;DHT22;12246;47.612;18.906;2022-11-20T13:42:27;5.40;99.90
24041;DHT22;12246;47.612;18.906;2022-11-20T13:45:28;5.30;99.90
24041;DHT22;12246;47.612;18.906;2022-11-20T13:48:21;5.20;99.90
24041;DHT22;12246;47.612;18.906;2022-11-20T13:54:59;5.10;99.90
24041;DHT22;12246;47.612;18.906;2022-11-20T14:01:28;5.00;99.90
24041;DHT22;12246;47.612;18.906;2022-11-20T14:04:29;5.00;99.90
24041;DHT22;12246;47.612;18.906;2022-11-20T14:07:25;4.90;99.90
24041;DHT22;12246;47.612;18.906;2022-11-20T14:10:27;4.90;99.90
24041;DHT22;12246;47.612;18.906;2022-11-20T14:13:23;4.90;99.90
24041;DHT22;12246;47.612;18.906;2022-11-20T14:16:22;4.90;99.90
24041;DHT22;12246;47.612;18.906;2022-11-20T14:22:23;4.90;99.90
24041;DHT22;12246;47.612;18.906;2022-11-20T14:28:11;4.80;99.90
24041;DHT22;12246;47.612;18.906;2022-11-20T14:31:23;4.80;99.90
24041;DHT22;12246;47.612;18.906;2022-11-20T14:34:22;4.70;99.90
24041;DHT22;12246;47.612;18.906;2022-11-20T14:37:36;4.70;99.90
24041;DHT22;12246;47.612;18.906;2022-11-20T14:40:34;4.60;99.90
24041;DHT22;12246;47.612;18.906;2022-11-20T14:43:28;4.50;99.90
24041;DHT22;12246;47.612;18.906;2022-11-20T14:46:21;4.50;99.90
24041;DHT22;12246;47.612;18.906;2022-11-20T14:49:14;4.50;99.90
24041;DHT22;12246;47.612;18.906;2022-11-20T14:52:24;4.60;99.90
24041;DHT22;12246;47.612;18.906;2022-11-20T14:55:29;4.60;99.90
24041;DHT22;12246;47.612;18.906;2022-11-20T14:58:24;4.60;99.90
24041;DHT22;12246;47.612;18.906;2022-11-20T15:01:26;4.70;99.90
24041;DHT22;12246;47.612;18.906;2022-11-20T15:04:19;4.50;99.90
24041;DHT22;12246;47.612;18.906;2022-11-20T15:07:11;4.30;99.90
24041;DHT22;12246;47.612;18.906;2022-11-20T15:10:09;4.20;99.90
24041;DHT22;12246;47.612;18.906;2022-11-20T15:13:11;4.10;99.90
24041;DHT22;12246;47.612;18.906;2022-11-20T15:16:13;4.00;99.90
24041;DHT22;12246;47.612;18.906;2022-11-20T15:19:16;3.90;99.90
24041;DHT22;12246;47.612;18.906;2022-11-20T15:22:11;3.90;99.90
24041;DHT22;12246;47.612;18.906;2022-11-20T15:25:13;3.90;99.90
24041;DHT22;12246;47.612;18.906;2022-11-20T15:28:16;3.90;99.90
24041;DHT22;12246;47.612;18.906;2022-11-20T15:31:12;3.80;99.90
24041;DHT22;12246;47.612;18.906;2022-11-20T15:34:07;3.70;99.90
24041;DHT22;12246;47.612;18.906;2022-11-20T15:36:59;3.70;99.90
24041;DHT22;12246;47.612;18.906;2022-11-20T15:39:52;3.70;99.90
24041;DHT22;12246;47.612;18.906;2022-11-20T15:42:44;3.60;99.90
24041;DHT22;12246;47.612;18.906;2022-11-20T15:46:45;3.60;99.90
24041;DHT22;12246;47.612;18.906;2022-11-20T15:49:18;3.60;99.90
24041;DHT22;12246;47.612;18.906;2022-11-20T15:52:15;3.70;99.90
24041;DHT22;12246;47.612;18.906;2022-11-20T15:55:10;3.60;99.90
24041;DHT22;12246;47.612;18.906;2022-11-20T15:58:02;3.60;99.90
24041;DHT22;12246;47.612;18.906;2022-11-20T16:00:55;3.60;99.90
24041;DHT22;12246;47.612;18.906;2022-11-20T16:03:48;3.60;99.90
24041;DHT22;12246;47.612;18.906;2022-11-20T16:06:41;3.60;99.90
24041;DHT22;12246;47.612;18.906;2022-11-20T16:09:33;3.70;99.90
24041;DHT22;12246;47.612;18.906;2022-11-20T16:12:25;3.70;99.90
24041;DHT22;12246;47.612;18.906;2022-11-20T16:15:53;3.70;99.90
24041;DHT22;12246;47.612;18.906;2022-11-20T16:18:48;3.70;99.90
24041;DHT22;12246;47.612;18.906;2022-11-20T16:21:40;3.70;99.90
24041;DHT22;12246;47.612;18.906;2022-11-20T16:24:33;3.70;99.90
24041;DHT22;12246;47.612;18.906;2022-11-20T16:27:26;3.70;99.90
24041;DHT22;12246;47.612;18.906;2022-11-20T16:30:18;3.80;99.90
24041;DHT22;12246;47.612;18.906;2022-11-20T16:33:12;3.90;99.90
24041;DHT22;12246;47.612;18.906;2022-11-20T16:36:14;3.80;99.90
24041;DHT22;12246;47.612;18.906;2022-11-20T16:39:07;3.80;99.90
24041;DHT22;12246;47.612;18.906;2022-11-20T16:42:03;3.80;99.90
24041;DHT22;12246;47.612;18.906;2022-11-20T16:44:55;3.80;99.90
24041;DHT22;12246;47.612;18.906;2022-11-20T16:47:47;3.70;99.90
24041;DHT22;12246;47.612;18.906;2022-11-20T16:50:50;3.80;99.90
24041;DHT22;12246;47.612;18.906;2022-11-20T16:53:43;3.80;99.90
24041;DHT22;12246;47.612;18.906;2022-11-20T16:56:36;3.70;99.90
24041;DHT22;12246;47.612;18.906;2022-11-20T16:59:28;3.70;99.90
24041;DHT22;12246;47.612;18.906;2022-11-20T17:02:20;3.60;99.90
24041;DHT22;12246;47.612;18.906;2022-11-20T17:05:12;3.40;99.90
24041;DHT22;12246;47.612;18.906;2022-11-20T17:08:05;3.40;99.90
24041;DHT22;12246;47.612;18.906;2022-11-20T17:11:07;3.30;99.90
24041;DHT22;12246;47.612;18.906;2022-11-20T17:13:59;3.20;99.90
24041;DHT22;12246;47.612;18.906;2022-11-20T17:16:53;3.20;99.90
24041;DHT22;12246;47.612;18.906;2022-11-20T17:19:45;3.10;99.90
24041;DHT22;12246;47.612;18.906;2022-11-20T17:22:37;3.10;99.90
24041;DHT22;12246;47.612;18.906;2022-11-20T17:25:32;3.10;99.90
24041;DHT22;12246;47.612;18.906;2022-11-20T17:28:24;3.10;99.90
24041;DHT22;12246;47.612;18.906;2022-11-20T17:31:16;3.10;99.90
24041;DHT22;12246;47.612;18.906;2022-11-20T17:34:12;3.20;99.90
24041;DHT22;12246;47.612;18.906;2022-11-20T17:37:04;3.20;99.90
24041;DHT22;12246;47.612;18.906;2022-11-20T17:39:56;3.20;99.90
24041;DHT22;12246;47.612;18.906;2022-11-20T17:42:48;3.20;99.90
24041;DHT22;12246;47.612;18.906;2022-11-20T17:45:41;3.20;99.90
24041;DHT22;12246;47.612;18.906;2022-11-20T17:48:34;3.20;99.90
24041;DHT22;12246;47.612;18.906;2022-11-20T17:51:30;3.10;99.90
24041;DHT22;12246;47.612;18.906;2022-11-20T17:54:22;3.20;99.90
24041;DHT22;12246;47.612;18.906;2022-11-20T17:57:15;3.10;99.90
24041;DHT22;12246;47.612;18.906;2022-11-20T18:00:26;3.10;99.90
24041;DHT22;12246;47.612;18.906;2022-11-20T18:03:19;3.20;99.90
24041;DHT22;12246;47.612;18.906;2022-11-20T18:06:14;3.10;99.90
24041;DHT22;12246;47.612;18.906;2022-11-20T18:09:06;3.10;99.90
24041;DHT22;12246;47.612;18.906;2022-11-20T18:11:58;3.10;99.90
24041;DHT22;12246;47.612;18.906;2022-11-20T18:14:51;3.10;99.90
24041;DHT22;12246;47.612;18.906;2022-11-20T18:17:43;3.10;99.90
24041;DHT22;12246;47.612;18.906;2022-11-20T18:20:35;3.10;99.90
24041;DHT22;12246;47.612;18.906;2022-11-20T18:23:32;3.00;99.90
24041;DHT22;12246;47.612;18.906;2022-11-20T18:26:25;3.10;99.90
24041;DHT22;12246;47.612;18.906;2022-11-20T18:29:17;3.00;99.90
24041;DHT22;12246;47.612;18.906;2022-11-20T18:32:09;2.90;99.90
24041;DHT22;12246;47.612;18.906;2022-11-20T18:35:01;2.80;99.90
24041;DHT22;12246;47.612;18.906;2022-11-20T18:37:53;2.80;99.90
24041;DHT22;12246;47.612;18.906;2022-11-20T18:40:45;2.80;99.90
24041;DHT22;12246;47.612;18.906;2022-11-20T18:43:38;2.80;99.90
24041;DHT22;12246;47.612;18.906;2022-11-20T18:46:49;2.70;99.90
24041;DHT22;12246;47.612;18.906;2022-11-20T18:49:42;2.70;99.90
24041;DHT22;12246;47.612;18.906;2022-11-20T18:52:40;2.70;99.90
24041;DHT22;12246;47.612;18.906;2022-11-20T18:55:32;2.70;99.90
24041;DHT22;12246;47.612;18.906;2022-11-20T18:58:27;2.70;99.90
24041;DHT22;12246;47.612;18.906;2022-11-20T19:01:19;2.60;99.90
24041;DHT22;12246;47.612;18.906;2022-11-20T19:04:13;2.60;99.90
24041;DHT22;12246;47.612;18.906;2022-11-20T19:07:06;2.50;99.90
24041;DHT22;12246;47.612;18.906;2022-11-20T19:09:59;2.40;99.90
24041;DHT22;12246;47.612;18.906;2022-11-20T19:12:55;2.50;99.90
24041;DHT22;12246;47.612;18.906;2022-11-20T19:15:49;2.70;99.90
24041;DHT22;12246;47.612;18.906;2022-11-20T19:18:41;2.80;99.90
24041;DHT22;12246;47.612;18.906;2022-11-20T19:21:34;2.90;99.90
24041;DHT22;12246;47.612;18.906;2022-11-20T19:24:26;3.00;99.90
24041;DHT22;12246;47.612;18.906;2022-11-20T19:27:19;3.20;99.90
24041;DHT22;12246;47.612;18.906;2022-11-20T19:30:12;3.20;99.90
24041;DHT22;12246;47.612;18.906;2022-11-20T19:33:04;3.10;99.90
24041;DHT22;12246;47.612;18.906;2022-11-20T19:35:56;3.10;99.90
24041;DHT22;12246;47.612;18.906;2022-11-20T19:38:50;3.00;99.90
24041;DHT22;12246;47.612;18.906;2022-11-20T19:41:42;2.80;99.90
24041;DHT22;12246;47.612;18.906;2022-11-20T19:44:35;2.80;99.90
24041;DHT22;12246;47.612;18.906;2022-11-20T19:47:27;2.90;99.90
24041;DHT22;12246;47.612;18.906;2022-11-20T19:50:39;3.00;99.90
24041;DHT22;12246;47.612;18.906;2022-11-20T19:53:31;3.10;99.90
24041;DHT22;12246;47.612;18.906;2022-11-20T19:56:25;3.00;99.90
24041;DHT22;12246;47.612;18.906;2022-11-20T19:59:17;3.10;99.90
24041;DHT22;12246;47.612;18.906;2022-11-20T20:02:10;3.20;99.90
24041;DHT22;12246;47.612;18.906;2022-11-20T20:05:02;3.30;99.90
24041;DHT22;12246;47.612;18.906;2022-11-20T20:07:55;3.20;99.90
24041;DHT22;12246;47.612;18.906;2022-11-20T20:10:47;3.10;99.90
24041;DHT22;12246;47.612;18.906;2022-11-20T20:13:39;3.20;99.90